Time;durP1;ratioP1;P1;durP2;ratioP2;P2;SDS_P1;SDS_P2;PMS_P1;PMS_P2;Temp;Humidity;BMP_temperature;BMP_pressure;BME280_temperature;BME280_humidity;BME280_pressure;Samples;Min_cycle;Max_cycle;Signal;HPM_P1;HPM_P2
2022/02/23 00:01:14;;;;;;;;;7.50;4.00;;;;;10.98;65.96;101842.03;5095719;27;69752;-61
2022/02/23 00:03:40;;;;;;;;;7.25;5.25;;;;;10.95;66.19;101846.69;5095914;27;65945;-60
2022/02/23 00:06:06;;;;;;;;;9.50;5.50;;;;;10.89;66.50;101841.84;5095647;27;66867;-60
2022/02/23 00:08:31;;;;;;;;;8.75;6.25;;;;;10.81;66.63;101843.22;5096607;27;45336;-60
2022/02/23 00:10:57;;;;;;;;;10.75;6.00;;;;;10.78;66.65;101847.84;5095417;27;68934;-60
2022/02/23 00:13:22;;;;;;;;;11.00;7.00;;;;;10.73;66.82;101845.53;5095973;27;55119;-60
2022/02/23 00:15:48;;;;;;;;;9.75;8.25;;;;;10.70;67.12;101853.63;5078476;27;45425;-60
2022/02/23 00:18:14;;;;;;;;;11.50;9.00;;;;;10.66;67.08;101839.84;5095724;27;61082;-60
2022/02/23 00:20:40;;;;;;;;;9.25;8.00;;;;;10.65;66.80;101840.81;5096245;27;45890;-61
2022/02/23 00:23:05;;;;;;;;;10.00;6.25;;;;;10.59;66.71;101845.66;5096201;27;45369;-60
2022/02/23 00:25:31;;;;;;;;;5.00;4.50;;;;;10.53;66.61;101853.00;5095476;27;63763;-60
2022/02/23 00:27:56;;;;;;;;;8.75;4.75;;;;;10.49;66.74;101856.78;5097302;27;63486;-61
2022/02/23 00:30:21;;;;;;;;;5.50;5.00;;;;;10.46;66.65;101854.34;5098679;27;69434;-60
2022/02/23 00:32:47;;;;;;;;;9.00;6.50;;;;;10.44;66.41;101860.63;5098925;27;65987;-60
2022/02/23 00:35:12;;;;;;;;;8.00;6.00;;;;;10.39;67.01;101848.63;5099843;27;45227;-60
2022/02/23 00:37:38;;;;;;;;;8.50;5.00;;;;;10.37;66.94;101853.13;5097509;27;55136;-59
2022/02/23 00:40:03;;;;;;;;;5.25;5.00;;;;;10.33;67.09;101850.81;5099475;27;45895;-60
2022/02/23 00:42:29;;;;;;;;;7.00;5.00;;;;;10.30;67.03;101851.88;5099605;27;45354;-60
2022/02/23 00:44:54;;;;;;;;;8.25;5.75;;;;;10.28;67.59;101860.78;5099310;27;52141;-60
2022/02/23 00:47:19;;;;;;;;;6.50;6.00;;;;;10.24;67.61;101863.63;5098946;27;58841;-60
2022/02/23 00:49:45;;;;;;;;;10.50;6.00;;;;;10.20;67.27;101856.88;5098932;27;61745;-61
2022/02/23 00:52:10;;;;;;;;;4.50;4.00;;;;;10.18;67.66;101856.13;5099206;27;45329;-60
2022/02/23 00:54:35;;;;;;;;;7.00;6.00;;;;;10.16;67.76;101855.38;5098710;27;59729;-60
2022/02/23 00:57:02;;;;;;;;;7.75;5.50;;;;;10.17;67.67;101857.06;5099477;27;45365;-60
2022/02/23 00:59:27;;;;;;;;;13.00;5.75;;;;;10.16;67.97;101851.94;5099141;27;46307;-60
2022/02/23 01:01:53;;;;;;;;;10.25;6.00;;;;;10.15;67.59;101861.59;5099308;27;45259;-60
2022/02/23 01:04:18;;;;;;;;;7.75;5.00;;;;;10.14;67.98;101856.44;5098102;27;45256;-60
2022/02/23 01:06:43;;;;;;;;;9.50;6.00;;;;;10.10;67.66;101856.66;5098687;27;54149;-60
2022/02/23 01:09:09;;;;;;;;;6.50;5.25;;;;;10.10;67.62;101866.28;5099077;27;46024;-60
2022/02/23 01:11:35;;;;;;;;;8.75;7.25;;;;;10.09;67.85;101870.72;5098322;27;63118;-60
2022/02/23 01:14:00;;;;;;;;;7.25;4.75;;;;;10.07;67.61;101874.38;5097918;27;45268;-60
2022/02/23 01:16:26;;;;;;;;;8.50;6.00;;;;;10.04;67.85;101875.44;5080814;27;45332;-60
2022/02/23 01:18:51;;;;;;;;;14.25;7.25;;;;;10.02;67.74;101871.22;5096787;27;69718;-60
2022/02/23 01:21:16;;;;;;;;;10.00;5.75;;;;;10.01;68.03;101872.16;5098243;27;61258;-60
2022/02/23 01:23:42;;;;;;;;;10.00;6.00;;;;;10.00;67.92;101873.94;5097080;27;62149;-60
2022/02/23 01:26:07;;;;;;;;;6.25;6.00;;;;;9.98;67.70;101872.38;5098930;27;45347;-60
2022/02/23 01:28:33;;;;;;;;;8.75;6.00;;;;;9.97;67.63;101873.31;5097860;27;67997;-60
2022/02/23 01:30:58;;;;;;;;;6.50;5.00;;;;;9.94;67.63;101871.72;5098436;27;45336;-60
2022/02/23 01:33:23;;;;;;;;;7.25;7.00;;;;;9.90;67.75;101870.22;5098984;27;45399;-60
2022/02/23 01:35:49;;;;;;;;;7.50;5.75;;;;;9.87;67.43;101880.91;5098789;27;45386;-60
2022/02/23 01:38:14;;;;;;;;;9.75;6.25;;;;;9.83;67.79;101882.03;5097465;27;66208;-60
2022/02/23 01:40:40;;;;;;;;;11.00;7.50;;;;;9.78;67.63;101882.34;5098326;27;49558;-60
2022/02/23 01:43:05;;;;;;;;;11.00;7.00;;;;;9.76;67.67;101878.97;5079851;27;45395;-60
2022/02/23 01:45:31;;;;;;;;;7.75;5.50;;;;;9.70;67.57;101880.22;5097574;27;65735;-60
2022/02/23 01:47:56;;;;;;;;;8.25;6.00;;;;;9.65;67.34;101883.13;5097610;27;70209;-60
2022/02/23 01:50:21;;;;;;;;;13.75;7.25;;;;;9.60;67.23;101874.69;5097612;27;63119;-60
2022/02/23 01:52:47;;;;;;;;;5.75;5.75;;;;;9.56;67.34;101882.88;5096395;27;64307;-60
2022/02/23 01:55:12;;;;;;;;;10.25;7.75;;;;;9.51;67.23;101885.78;5098488;27;45337;-61
2022/02/23 01:57:38;;;;;;;;;12.00;8.00;;;;;9.46;67.36;101887.84;5098318;27;45389;-61
2022/02/23 02:00:05;;;;;;;;;16.50;12.75;;;;;9.42;67.07;101896.84;5097374;27;67925;-60
2022/02/23 02:02:31;;;;;;;;;16.00;12.25;;;;;9.37;67.08;101904.16;5098337;27;45342;-61
2022/02/23 02:04:56;;;;;;;;;17.25;15.00;;;;;9.32;67.31;101897.41;5096220;27;64165;-60
2022/02/23 02:07:21;;;;;;;;;26.00;21.50;;;;;9.25;67.28;101885.59;5098090;27;45988;-60
2022/02/23 02:09:47;;;;;;;;;23.75;20.75;;;;;9.23;67.41;101887.47;5097277;27;64562;-60
2022/02/23 02:12:13;;;;;;;;;15.50;14.00;;;;;9.18;67.35;101900.03;5098275;27;45315;-60
2022/02/23 02:14:38;;;;;;;;;19.50;14.00;;;;;9.16;67.56;101896.66;5098097;27;45149;-60
2022/02/23 02:17:04;;;;;;;;;18.00;14.00;;;;;9.13;67.24;101889.84;5097014;27;72938;-61
2022/02/23 02:19:30;;;;;;;;;18.25;14.75;;;;;9.10;67.13;101897.88;5078591;27;45300;-61
2022/02/23 02:22:02;;;;;;;;;18.00;12.50;;;;;9.05;67.13;101905.19;5097357;27;45517;-61
2022/02/23 02:24:32;;;;;;;;;17.00;13.00;;;;;9.00;67.28;101894.97;5098042;27;45489;-60
2022/02/23 02:26:58;;;;;;;;;19.00;13.25;;;;;8.96;67.53;101901.34;5097842;27;46446;-60
2022/02/23 02:29:24;;;;;;;;;14.00;11.50;;;;;8.92;67.92;101905.06;5097897;27;45244;-60
2022/02/23 02:31:49;;;;;;;;;16.00;13.25;;;;;8.91;68.02;101906.00;5096684;27;62239;-60
2022/02/23 02:34:15;;;;;;;;;16.50;14.50;;;;;8.90;67.85;101906.94;5097307;27;54073;-61
2022/02/23 02:36:41;;;;;;;;;18.00;12.75;;;;;8.88;67.77;101909.66;5097666;27;45958;-60
2022/02/23 02:39:07;;;;;;;;;14.75;12.00;;;;;8.86;67.79;101906.28;5097700;27;45239;-60
2022/02/23 02:41:33;;;;;;;;;14.25;9.00;;;;;8.82;68.08;101902.13;5097770;27;45316;-60
2022/02/23 02:43:58;;;;;;;;;21.75;14.75;;;;;8.82;68.42;101903.94;5097652;27;45616;-60
2022/02/23 02:46:24;;;;;;;;;12.50;11.00;;;;;8.81;68.67;101897.00;5096890;27;64283;-60
2022/02/23 02:48:49;;;;;;;;;14.00;12.00;;;;;8.78;68.59;101905.88;5096617;27;71401;-60
2022/02/23 02:51:15;;;;;;;;;12.00;9.25;;;;;8.75;68.95;101906.06;5095710;27;62295;-61
2022/02/23 02:53:40;;;;;;;;;14.50;11.75;;;;;8.74;68.94;101905.22;5096531;27;70474;-60
2022/02/23 02:56:05;;;;;;;;;15.00;9.25;;;;;8.75;69.38;101901.66;5096801;27;58310;-61
2022/02/23 02:58:31;;;;;;;;;11.00;9.75;;;;;8.76;69.23;101898.13;5096182;27;72414;-61
2022/02/23 03:00:56;;;;;;;;;19.00;11.50;;;;;8.78;69.29;101898.00;5078162;27;69349;-61
2022/02/23 03:03:21;;;;;;;;;13.25;10.50;;;;;8.79;69.08;101898.88;5096684;27;61017;-60
2022/02/23 03:05:48;;;;;;;;;16.25;11.25;;;;;8.80;69.19;101903.19;5096521;27;66476;-61
2022/02/23 03:08:13;;;;;;;;;15.50;10.00;;;;;8.79;69.65;101896.25;5097190;27;45899;-61
2022/02/23 03:10:40;;;;;;;;;13.25;11.75;;;;;8.78;69.66;101892.75;5097346;27;45409;-61
2022/02/23 03:13:06;;;;;;;;;12.00;7.25;;;;;8.79;69.64;101901.50;5097181;27;45246;-59
2022/02/23 03:15:31;;;;;;;;;10.25;8.00;;;;;8.78;69.57;101905.88;5097217;27;45311;-60
2022/02/23 03:17:57;;;;;;;;;10.50;9.25;;;;;8.78;70.01;101899.81;5096261;27;67549;-60
2022/02/23 03:20:22;;;;;;;;;17.25;11.25;;;;;8.77;70.06;101906.81;5094911;27;62889;-60
2022/02/23 03:22:47;;;;;;;;;11.00;9.25;;;;;8.79;70.22;101899.69;5096143;27;68447;-60
2022/02/23 03:25:13;;;;;;;;;14.25;10.00;;;;;8.80;70.24;101900.56;5096265;27;65380;-60
2022/02/23 03:27:38;;;;;;;;;15.75;12.00;;;;;8.80;70.07;101911.03;5095857;27;71729;-60
2022/02/23 03:30:04;;;;;;;;;21.00;12.25;;;;;8.79;69.96;101906.72;5096844;27;45214;-60
2022/02/23 03:32:30;;;;;;;;;13.00;10.00;;;;;8.78;69.80;101900.63;5096962;27;45437;-60
2022/02/23 03:34:55;;;;;;;;;15.00;11.50;;;;;8.78;69.69;101899.81;5095848;27;69013;-60
2022/02/23 03:37:21;;;;;;;;;20.75;11.50;;;;;8.77;69.70;101901.56;5095981;27;64155;-60
2022/02/23 03:39:46;;;;;;;;;14.00;10.50;;;;;8.74;69.61;101902.59;5096745;27;45397;-60
2022/02/23 03:42:11;;;;;;;;;13.00;10.25;;;;;8.72;69.76;101911.50;5095926;27;64879;-60
2022/02/23 03:44:37;;;;;;;;;15.00;13.00;;;;;8.71;69.53;101908.03;5096687;27;45444;-61
2022/02/23 03:47:02;;;;;;;;;11.75;7.75;;;;;8.70;69.95;101905.50;5096757;27;45493;-61
2022/02/23 03:49:28;;;;;;;;;11.50;8.25;;;;;8.70;70.13;101910.75;5095930;27;45513;-60
2022/02/23 03:51:53;;;;;;;;;10.25;5.50;;;;;8.72;70.32;101914.13;5096581;27;45374;-60
2022/02/23 03:54:20;;;;;;;;;10.50;7.50;;;;;8.72;70.10;101919.38;5096536;27;45417;-60
2022/02/23 03:56:46;;;;;;;;;16.25;8.00;;;;;8.70;69.99;101906.34;5096709;27;45294;-60
2022/02/23 03:59:12;;;;;;;;;10.75;7.25;;;;;8.70;70.08;101910.75;5096689;27;45323;-60
2022/02/23 04:01:39;;;;;;;;;17.50;9.25;;;;;8.68;69.71;101910.81;5079891;27;45304;-60
2022/02/23 04:04:04;;;;;;;;;8.50;5.50;;;;;8.66;69.58;101910.06;5100249;27;46107;-60
2022/02/23 04:06:30;;;;;;;;;8.50;6.25;;;;;8.66;69.20;101915.31;5081842;27;45334;-60
2022/02/23 04:08:57;;;;;;;;;12.50;7.50;;;;;8.62;69.09;101916.41;5100218;27;45365;-60
2022/02/23 04:11:22;;;;;;;;;10.00;6.00;;;;;8.59;69.07;101913.97;5098983;27;45580;-60
2022/02/23 04:13:47;;;;;;;;;11.00;7.50;;;;;8.59;68.91;101913.97;5099367;27;59258;-60
2022/02/23 04:16:13;;;;;;;;;10.75;4.75;;;;;8.55;68.65;101918.56;5099315;27;63471;-60
2022/02/23 04:18:39;;;;;;;;;6.25;4.75;;;;;8.51;68.51;101921.41;5100151;27;45611;-60
2022/02/23 04:21:05;;;;;;;;;9.75;8.75;;;;;8.47;68.87;101918.13;5082040;27;45264;-59
2022/02/23 04:23:30;;;;;;;;;8.25;6.25;;;;;8.44;68.50;101907.81;5099872;27;45463;-59
2022/02/23 04:25:55;;;;;;;;;5.00;5.00;;;;;8.41;68.62;101906.22;5098917;27;68124;-60
2022/02/23 04:28:25;;;;;;;;;7.25;5.00;;;;;8.36;68.57;101907.41;5099922;27;45669;-60
2022/02/23 04:30:51;;;;;;;;;11.50;5.00;;;;;8.32;68.69;101912.81;5099043;27;45284;-60
2022/02/23 04:33:17;;;;;;;;;9.00;5.25;;;;;8.26;68.49;101907.09;5099630;27;45796;-61
2022/02/23 04:35:43;;;;;;;;;12.00;7.00;;;;;8.20;68.62;101910.91;5099500;27;45424;-60
2022/02/23 04:38:08;;;;;;;;;11.25;7.00;;;;;8.14;68.73;101908.66;5081241;27;45407;-60
2022/02/23 04:40:35;;;;;;;;;9.75;6.25;;;;;8.10;68.45;101918.41;5099280;27;45639;-60
2022/02/23 04:43:00;;;;;;;;;11.25;6.75;;;;;8.09;68.59;101921.13;5098687;27;66571;-61
2022/02/23 04:45:26;;;;;;;;;9.75;7.00;;;;;8.06;68.33;101921.31;5098201;27;63073;-60
2022/02/23 04:47:51;;;;;;;;;9.25;6.25;;;;;8.02;68.23;101911.00;5099675;27;45238;-61
2022/02/23 04:50:16;;;;;;;;;12.25;7.75;;;;;8.00;68.12;101925.94;5098173;27;45232;-60
2022/02/23 04:52:42;;;;;;;;;8.75;8.50;;;;;7.99;68.00;101923.41;5098346;27;72467;-60
2022/02/23 04:55:08;;;;;;;;;13.50;12.25;;;;;7.95;68.22;101924.53;5099325;27;45175;-60
2022/02/23 04:57:33;;;;;;;;;15.75;12.50;;;;;7.89;68.22;101919.63;5099407;27;45236;-61
2022/02/23 04:59:59;;;;;;;;;11.00;11.00;;;;;7.85;68.16;101925.03;5098760;27;57026;-60
2022/02/23 05:02:24;;;;;;;;;9.75;7.25;;;;;7.80;68.10;101921.81;5098597;27;65509;-60
2022/02/23 05:04:50;;;;;;;;;17.00;11.75;;;;;7.76;67.98;101925.53;5099128;27;45847;-60
2022/02/23 05:07:15;;;;;;;;;51.75;40.50;;;;;7.71;67.67;101928.38;5098463;27;63867;-60
2022/02/23 05:09:41;;;;;;;;;28.00;26.00;;;;;7.67;67.47;101928.63;5080729;27;45436;-60
2022/02/23 05:12:07;;;;;;;;;30.00;24.25;;;;;7.60;67.54;101919.44;5098876;27;45419;-60
2022/02/23 05:14:32;;;;;;;;;18.75;13.75;;;;;7.59;67.50;101923.81;5098407;27;45404;-60
2022/02/23 05:16:58;;;;;;;;;13.75;10.25;;;;;7.54;67.82;101931.06;5099209;27;45419;-60
2022/02/23 05:19:23;;;;;;;;;10.25;8.50;;;;;7.49;67.95;101939.16;5099123;27;45585;-59
2022/02/23 05:21:49;;;;;;;;;10.00;8.25;;;;;7.45;68.03;101931.56;5097618;27;75565;-60
2022/02/23 05:24:14;;;;;;;;;8.25;8.25;;;;;7.40;68.03;101934.44;5098780;27;46222;-60
2022/02/23 05:26:40;;;;;;;;;18.75;11.75;;;;;7.34;67.91;101932.13;5098929;27;45239;-61
2022/02/23 05:29:05;;;;;;;;;17.75;13.00;;;;;7.27;67.72;101934.19;5098215;27;59150;-60
2022/02/23 05:31:31;;;;;;;;;12.25;10.75;;;;;7.21;67.88;101930.16;5097867;27;60092;-60
2022/02/23 05:33:56;;;;;;;;;25.25;19.25;;;;;7.19;67.97;101928.53;5098729;27;45180;-61
2022/02/23 05:36:21;;;;;;;;;18.50;17.00;;;;;7.14;67.79;101931.38;5098111;27;59514;-60
2022/02/23 05:38:47;;;;;;;;;20.50;17.25;;;;;7.11;67.87;101939.38;5097782;27;68830;-60
2022/02/23 05:41:12;;;;;;;;;18.75;15.50;;;;;7.12;67.95;101941.06;5097548;27;72579;-60
2022/02/23 05:43:38;;;;;;;;;21.75;13.50;;;;;7.09;68.21;101947.31;5098599;27;45227;-60
2022/02/23 05:46:03;;;;;;;;;14.75;12.00;;;;;7.09;68.27;101946.47;5097934;27;63356;-61
2022/02/23 05:48:28;;;;;;;;;11.25;9.00;;;;;7.09;68.36;101936.00;5098658;27;45529;-60
2022/02/23 05:50:54;;;;;;;;;14.00;10.00;;;;;7.05;68.56;101939.69;5097591;27;66824;-61
2022/02/23 05:53:19;;;;;;;;;14.75;11.00;;;;;7.03;68.56;101945.00;5079319;27;66610;-60
2022/02/23 05:55:45;;;;;;;;;12.00;11.00;;;;;6.98;68.64;101945.22;5098492;27;45559;-60
2022/02/23 05:58:10;;;;;;;;;17.75;15.25;;;;;6.95;68.05;101947.16;5097499;27;62458;-60
2022/02/23 06:00:35;;;;;;;;;16.25;15.25;;;;;6.89;67.77;101956.13;5097218;27;75610;-60
2022/02/23 06:03:01;;;;;;;;;18.50;15.00;;;;;6.81;67.50;101953.91;5098264;27;45275;-60
2022/02/23 06:05:26;;;;;;;;;18.00;13.00;;;;;6.75;67.49;101950.78;5097662;27;57703;-60
2022/02/23 06:07:51;;;;;;;;;23.25;20.00;;;;;6.73;67.65;101950.00;5097216;27;70583;-60
2022/02/23 06:10:17;;;;;;;;;25.25;19.25;;;;;6.70;67.64;101956.22;5097056;27;72340;-60
2022/02/23 06:12:42;;;;;;;;;21.50;12.50;;;;;6.68;67.81;101951.06;5097983;27;45357;-60
2022/02/23 06:15:08;;;;;;;;;18.00;13.00;;;;;6.66;68.08;101947.69;5097497;27;58511;-60
2022/02/23 06:17:33;;;;;;;;;17.25;12.25;;;;;6.65;67.73;101948.63;5097862;27;45543;-60
2022/02/23 06:20:00;;;;;;;;;17.25;13.75;;;;;6.61;67.41;101952.28;5097768;27;45888;-60
2022/02/23 06:22:25;;;;;;;;;17.00;14.50;;;;;6.60;67.60;101944.56;5098047;27;45943;-60
2022/02/23 06:24:51;;;;;;;;;22.00;15.50;;;;;6.58;67.70;101952.44;5078540;27;45617;-60
2022/02/23 06:27:17;;;;;;;;;16.50;13.75;;;;;6.57;67.54;101949.94;5097114;27;65523;-61
2022/02/23 06:29:43;;;;;;;;;22.75;19.50;;;;;6.56;67.65;101951.69;5097806;27;46105;-60
2022/02/23 06:32:09;;;;;;;;;22.25;17.25;;;;;6.56;67.56;101951.69;5075747;28;45315;-60
2022/02/23 06:34:34;;;;;;;;;27.50;17.25;;;;;6.55;67.57;101962.22;5077547;27;45249;-60
2022/02/23 06:37:02;;;;;;;;;37.25;21.25;;;;;6.51;67.71;101959.75;5075892;28;45249;-61
2022/02/23 06:39:31;;;;;;;;;29.75;22.25;;;;;6.48;67.84;101953.81;5076925;27;46236;-60
2022/02/23 06:41:57;;;;;;;;;21.25;19.25;;;;;6.45;67.79;101956.56;5077179;27;45825;-60
2022/02/23 06:44:22;;;;;;;;;20.00;17.00;;;;;6.42;67.73;101968.00;5077182;27;45245;-60
2022/02/23 06:46:48;;;;;;;;;26.75;18.00;;;;;6.40;67.72;101969.84;5059018;28;45272;-60
2022/02/23 06:49:14;;;;;;;;;17.75;16.25;;;;;6.38;67.74;101967.31;5077015;27;45895;-60
2022/02/23 06:51:40;;;;;;;;;12.50;11.25;;;;;6.39;67.60;101969.00;5075810;28;45868;-60
2022/02/23 06:54:05;;;;;;;;;15.00;14.75;;;;;6.39;67.75;101968.16;5075668;28;45480;-60
2022/02/23 06:56:31;;;;;;;;;13.25;11.25;;;;;6.35;68.02;101967.47;5076917;27;49618;-60
2022/02/23 06:58:56;;;;;;;;;19.50;15.25;;;;;6.32;68.08;101978.06;5076795;27;47656;-60
2022/02/23 07:01:22;;;;;;;;;17.50;15.75;;;;;6.28;67.54;101981.72;5075979;27;67042;-59
2022/02/23 07:03:47;;;;;;;;;19.25;16.75;;;;;6.24;67.55;101986.22;5076842;27;45392;-60
2022/02/23 07:06:13;;;;;;;;;18.00;13.75;;;;;6.21;67.89;101982.94;5076916;27;45509;-60
2022/02/23 07:08:44;;;;;;;;;16.25;10.25;;;;;6.16;67.62;101984.91;5076634;27;45990;-60
2022/02/23 07:11:09;;;;;;;;;22.75;16.50;;;;;6.13;67.65;101985.06;5076501;27;45235;-60
2022/02/23 07:13:34;;;;;;;;;25.50;15.75;;;;;6.14;67.85;101984.13;5076733;27;45229;-59
2022/02/23 07:16:00;;;;;;;;;20.75;16.75;;;;;6.15;68.05;101997.09;5075795;27;63548;-60
2022/02/23 07:18:25;;;;;;;;;35.25;27.75;;;;;6.17;68.27;101984.00;5075889;27;46245;-60
2022/02/23 07:20:51;;;;;;;;;36.00;27.50;;;;;6.17;68.62;101995.25;5076580;27;45313;-60
2022/02/23 07:23:16;;;;;;;;;25.75;18.00;;;;;6.18;68.86;101993.53;5076018;27;61325;-60
2022/02/23 07:25:41;;;;;;;;;26.25;18.00;;;;;6.18;69.05;102001.34;5075840;27;63002;-60
2022/02/23 07:28:07;;;;;;;;;22.50;18.50;;;;;6.19;69.11;102003.03;5075646;27;71369;-60
2022/02/23 07:30:32;;;;;;;;;28.25;22.75;;;;;6.18;69.07;102009.19;5081521;27;48306;-60
2022/02/23 07:32:58;;;;;;;;;22.25;21.75;;;;;6.16;69.36;101998.78;5097118;27;45333;-60
2022/02/23 07:35:23;;;;;;;;;28.50;20.75;;;;;6.16;69.57;101998.78;5095957;27;61427;-60
2022/02/23 07:37:52;;;;;;;;;25.75;18.75;;;;;6.17;69.76;101999.66;5095415;27;65200;-61
2022/02/23 07:40:20;;;;;;;;;24.50;19.25;;;;;6.19;69.98;101997.81;5096789;27;45365;-60
2022/02/23 07:42:45;;;;;;;;;21.75;17.25;;;;;6.23;70.27;102001.97;5096970;27;45481;-60
2022/02/23 07:45:11;;;;;;;;;24.25;19.25;;;;;6.28;69.99;101999.13;5096917;27;45252;-59
2022/02/23 07:47:37;;;;;;;;;31.00;24.50;;;;;6.31;70.51;101992.03;5096597;27;45364;-60
2022/02/23 07:50:05;;;;;;;;;25.00;22.00;;;;;6.36;70.35;102003.06;5078398;27;45342;-60
2022/02/23 07:52:31;;;;;;;;;27.50;18.75;;;;;6.40;70.71;102003.78;5078298;27;45331;-59
2022/02/23 07:54:56;;;;;;;;;22.00;17.00;;;;;6.44;70.97;102001.88;5096452;27;45450;-60
2022/02/23 07:57:22;;;;;;;;;18.00;15.00;;;;;6.46;71.28;102006.13;5095457;27;61703;-61
2022/02/23 07:59:47;;;;;;;;;14.25;14.00;;;;;6.51;71.53;102003.28;5095998;27;45285;-60
2022/02/23 08:02:14;;;;;;;;;23.75;17.25;;;;;6.54;71.64;102008.34;5095718;27;45287;-60
2022/02/23 08:04:40;;;;;;;;;22.25;16.00;;;;;6.58;71.83;101998.63;5095678;27;45560;-60
2022/02/23 08:07:05;;;;;;;;;25.00;20.75;;;;;6.66;71.88;102006.91;5095299;27;45470;-60
2022/02/23 08:09:31;;;;;;;;;26.00;22.75;;;;;6.72;71.82;101993.56;5095769;27;45492;-60
2022/02/23 08:11:56;;;;;;;;;24.50;20.75;;;;;6.78;71.83;102005.50;5095756;27;45457;-60
2022/02/23 08:14:22;;;;;;;;;25.00;20.00;;;;;6.82;71.98;102004.41;5077260;27;65739;-60
2022/02/23 08:19:35;;;;;;;;;29.75;19.00;;;;;6.93;71.77;102001.28;5096213;27;45968;-60
2022/02/23 08:22:05;;;;;;;;;27.00;23.25;;;;;7.00;71.76;102004.41;5094381;27;45339;-60
2022/02/23 08:24:33;;;;;;;;;31.50;26.75;;;;;7.06;71.63;102011.94;5096384;27;45633;-60
2022/02/23 08:26:58;;;;;;;;;25.75;17.50;;;;;7.11;71.68;102012.56;5095904;27;45353;-60
2022/02/23 08:29:24;;;;;;;;;23.00;18.25;;;;;7.18;71.68;102016.56;5096211;27;45311;-60
2022/02/23 08:31:49;;;;;;;;;33.25;25.75;;;;;7.23;71.30;102009.34;5077120;27;45447;-60
2022/02/23 08:34:15;;;;;;;;;42.00;36.50;;;;;7.26;71.38;102011.81;5095969;27;45502;-60
2022/02/23 08:36:40;;;;;;;;;46.25;35.50;;;;;7.30;71.54;102017.72;5095775;27;46215;-59
2022/02/23 08:39:07;;;;;;;;;34.75;27.50;;;;;7.34;71.47;102019.25;5094532;27;71797;-60
2022/02/23 08:41:32;;;;;;;;;38.75;29.00;;;;;7.41;71.51;102014.56;5096069;27;45493;-60
2022/02/23 08:43:57;;;;;;;;;39.25;34.00;;;;;7.49;71.47;102015.00;5095970;27;45522;-59
2022/02/23 08:46:23;;;;;;;;;45.00;34.75;;;;;7.58;71.75;102014.53;5095375;27;59081;-60
2022/02/23 08:48:48;;;;;;;;;50.75;38.00;;;;;7.70;71.70;102020.88;5097406;27;45472;-60
2022/02/23 08:51:13;;;;;;;;;41.00;34.00;;;;;7.83;71.45;102020.22;5100979;27;63470;-60
2022/02/23 08:53:39;;;;;;;;;42.50;33.00;;;;;7.97;71.40;102022.09;5106715;27;63412;-59
2022/02/23 08:56:04;;;;;;;;;40.25;34.00;;;;;8.06;71.39;102026.84;5118816;27;68861;-60
2022/02/23 08:58:30;;;;;;;;;49.25;36.50;;;;;8.19;71.24;102024.44;5118617;27;70595;-60
2022/02/23 09:00:55;;;;;;;;;43.50;35.25;;;;;8.31;70.67;102021.13;5119321;27;54621;-60
2022/02/23 09:03:22;;;;;;;;;50.00;40.25;;;;;8.46;70.75;102008.97;5119764;27;45512;-60
2022/02/23 09:05:48;;;;;;;;;50.25;38.75;;;;;8.63;70.50;102016.84;5119302;27;46354;-60
2022/02/23 09:08:13;;;;;;;;;48.25;39.50;;;;;8.79;70.33;102024.66;5100765;27;45366;-60
2022/02/23 09:10:39;;;;;;;;;46.75;37.25;;;;;8.97;70.08;102018.38;5101519;27;45409;-60
2022/02/23 09:13:05;;;;;;;;;48.25;38.75;;;;;9.16;70.10;102012.91;5119578;27;45325;-60
2022/02/23 09:15:31;;;;;;;;;53.00;40.25;;;;;9.44;69.77;102013.03;5119453;27;46117;-60
2022/02/23 09:17:56;;;;;;;;;46.50;37.25;;;;;9.70;69.27;102008.81;5119437;27;45225;-60
2022/02/23 09:20:22;;;;;;;;;51.25;36.75;;;;;9.94;69.15;102002.97;5118283;27;68494;-60
2022/02/23 09:22:47;;;;;;;;;49.25;38.75;;;;;10.22;68.24;102009.16;5119712;27;45207;-60
2022/02/23 09:25:13;;;;;;;;;39.25;33.00;;;;;10.49;67.68;102003.06;5119375;27;46080;-60
2022/02/23 09:27:39;;;;;;;;;52.50;40.25;;;;;10.77;67.93;101999.50;5118430;27;68896;-61
2022/02/23 09:30:08;;;;;;;;;51.50;38.75;;;;;11.02;66.92;101997.88;5119039;27;45357;-60
2022/02/23 09:32:33;;;;;;;;;52.50;38.25;;;;;11.27;66.16;101999.69;5119189;27;45325;-60
2022/02/23 09:34:58;;;;;;;;;46.50;36.75;;;;;11.48;65.89;101998.31;5118137;27;74711;-60
2022/02/23 09:37:24;;;;;;;;;49.25;39.00;;;;;11.69;65.61;101994.16;5118345;27;62745;-60
2022/02/23 09:39:49;;;;;;;;;39.25;33.00;;;;;11.84;64.30;101994.91;5119158;27;45325;-60
2022/02/23 09:42:15;;;;;;;;;37.75;27.50;;;;;12.01;63.96;101999.00;5119173;27;45483;-61
2022/02/23 09:44:41;;;;;;;;;36.50;30.75;;;;;12.21;63.75;101994.06;5083678;27;45274;-61
2022/02/23 09:47:07;;;;;;;;;40.00;30.75;;;;;12.39;63.12;101991.06;5119013;27;45384;-60
2022/02/23 09:49:32;;;;;;;;;33.25;28.75;;;;;12.54;62.60;101997.00;5118904;27;45423;-61
2022/02/23 09:51:58;;;;;;;;;42.50;33.00;;;;;12.64;62.01;101987.47;5099873;27;63301;-60
2022/02/23 09:54:23;;;;;;;;;42.00;31.75;;;;;12.71;61.87;101990.50;5117523;27;46126;-60
2022/02/23 09:56:48;;;;;;;;;34.50;29.50;;;;;12.73;61.43;101980.66;5117948;27;67071;-60
2022/02/23 09:59:14;;;;;;;;;24.75;20.50;;;;;12.73;60.94;101978.88;5118812;27;45557;-61
2022/02/23 10:01:40;;;;;;;;;28.25;20.25;;;;;12.68;60.88;101985.47;5099450;27;45402;-60
2022/02/23 10:04:07;;;;;;;;;19.25;13.50;;;;;12.62;59.64;101984.09;5116558;27;45509;-60
2022/02/23 10:06:34;;;;;;;;;20.75;15.00;;;;;12.54;59.86;101982.03;5116919;27;46041;-60
2022/02/23 10:09:05;;;;;;;;;19.00;18.00;;;;;12.45;60.25;101980.06;5118037;27;45436;-60
2022/02/23 10:11:31;;;;;;;;;20.25;16.75;;;;;12.38;60.40;101973.56;5118441;27;45410;-59
2022/02/23 10:14:01;;;;;;;;;21.25;19.00;;;;;12.31;60.06;101971.38;5118129;27;53778;-60
2022/02/23 10:16:38;;;;;;;;;37.75;27.00;;;;;12.22;60.79;101964.13;5117850;27;45505;-60
2022/02/23 10:19:08;;;;;;;;;33.00;29.25;;;;;12.14;61.49;101967.34;5118517;27;45515;-60
2022/02/23 10:21:59;;;;;;;;;32.00;26.00;;;;;12.08;61.66;101969.59;5118159;27;45307;-60
2022/02/23 10:24:25;;;;;;;;;32.50;22.25;;;;;12.02;61.40;101966.44;5117817;27;45283;-61
2022/02/23 10:26:57;;;;;;;;;30.25;26.75;;;;;11.97;61.40;101965.03;5117742;27;45454;-60
2022/02/23 10:29:31;;;;;;;;;33.25;30.00;;;;;11.88;61.72;101961.28;5117578;27;45345;-61
2022/02/23 10:31:56;;;;;;;;;36.75;29.75;;;;;11.82;61.76;101954.66;5117308;27;45430;-61
2022/02/23 10:34:21;;;;;;;;;32.25;29.00;;;;;11.74;61.96;101959.63;5118030;27;46682;-61
2022/02/23 10:36:58;;;;;;;;;27.75;24.75;;;;;11.66;62.35;101957.53;5117734;27;45311;-60
2022/02/23 10:39:23;;;;;;;;;27.75;26.75;;;;;11.61;62.72;101961.44;5117928;27;45390;-60
2022/02/23 10:41:48;;;;;;;;;34.25;24.50;;;;;11.55;62.41;101949.56;5116888;27;68470;-60
2022/02/23 10:44:14;;;;;;;;;25.25;22.00;;;;;11.51;62.88;101958.63;5098581;27;61058;-60
2022/02/23 10:46:39;;;;;;;;;22.25;19.25;;;;;11.50;62.46;101960.41;5081250;27;72222;-60
2022/02/23 10:49:04;;;;;;;;;28.75;23.75;;;;;11.50;62.82;101957.75;5118065;27;45204;-60
2022/02/23 10:51:35;;;;;;;;;19.75;16.25;;;;;11.52;63.08;101958.50;5082249;27;45474;-60
2022/02/23 10:54:19;;;;;;;;;29.00;23.00;;;;;11.57;63.48;101939.78;5117671;27;47520;-60
2022/02/23 10:56:44;;;;;;;;;27.50;22.50;;;;;11.62;63.25;101945.56;5081332;27;67322;-60
2022/02/23 10:59:15;;;;;;;;;28.00;24.50;;;;;11.70;63.15;101945.81;5117863;27;45324;-60
2022/02/23 11:01:47;;;;;;;;;31.25;24.00;;;;;11.83;63.53;101942.31;5117584;27;45469;-60
2022/02/23 11:04:12;;;;;;;;;24.75;22.50;;;;;11.91;63.40;101940.00;5117480;27;45394;-60
2022/02/23 11:06:38;;;;;;;;;27.75;21.75;;;;;11.99;63.02;101931.53;5116687;27;69916;-60
2022/02/23 11:09:05;;;;;;;;;25.75;21.25;;;;;12.11;62.72;101935.13;5117425;27;45305;-60
2022/02/23 11:11:30;;;;;;;;;27.50;21.50;;;;;12.28;62.95;101932.06;5116430;27;45326;-60
2022/02/23 11:13:56;;;;;;;;;22.00;18.75;;;;;12.43;61.83;101929.25;5117209;27;45690;-61
2022/02/23 11:16:22;;;;;;;;;15.75;14.00;;;;;12.63;60.15;101919.03;5099283;27;45252;-60